Terminal Aerodrome Forecast
Issued by NWS

Home | Current Version | Previous Version | Text Only | Print | Product List | Glossary On
Versions: 1 2 3 4 5 6 7 8 9 10 11 12 13 14 15 16 17
000
FTUS43 KMPX 272332
TAFRNH
TAF
KRNH 272332Z 2800/2824 15009KT P6SM OVC017
     FM280600 15010KT P6SM OVC009
     FM281500 15012G19KT P6SM OVC015
     FM282200 15009KT P6SM OVC018=

USA.gov is the U.S. government's official web portal to all federal, state and local government web resources and services.